Time;durP1;ratioP1;P1;durP2;ratioP2;P2;SDS_P1;SDS_P2;PMS_P1;PMS_P2;Temp;Humidity;BMP_temperature;BMP_pressure;BME280_temperature;BME280_humidity;BME280_pressure;Samples;Min_cycle;Max_cycle;Signal;HPM_P1;HPM_P2
2021/03/17 00:00:01;;;;;;;9.73;6.70;;;;;;;3.13;93.24;99322.97;5898000;23;20006;-67
2021/03/17 00:02:27;;;;;;;12.55;6.60;;;;;;;3.01;94.20;99322.72;5891089;23;20006;-67
2021/03/17 00:04:52;;;;;;;9.32;6.38;;;;;;;3.05;95.25;99319.41;5960124;23;20488;-66
2021/03/17 00:07:17;;;;;;;14.32;7.90;;;;;;;3.09;94.28;99318.63;5944252;23;20006;-67
2021/03/17 00:09:43;;;;;;;9.68;7.50;;;;;;;3.17;94.77;99314.53;5975231;23;20001;-66
2021/03/17 00:12:09;;;;;;;13.27;8.93;;;;;;;3.24;95.37;99313.81;5926093;23;20056;-67
2021/03/17 00:14:34;;;;;;;12.05;8.38;;;;;;;3.31;95.97;99312.25;5934974;23;20572;-67
2021/03/17 00:16:59;;;;;;;11.00;8.43;;;;;;;3.16;94.92;99317.91;5989862;23;20073;-66
2021/03/17 00:19:25;;;;;;;11.23;7.85;;;;;;;3.27;94.46;99311.31;5954492;23;20101;-67
2021/03/17 00:21:50;;;;;;;11.05;7.43;;;;;;;3.33;95.00;99319.09;5998375;23;20398;-67
2021/03/17 00:24:15;;;;;;;15.02;7.03;;;;;;;3.41;94.11;99310.72;6011869;23;20433;-66
2021/03/17 00:26:41;;;;;;;12.00;7.47;;;;;;;3.27;94.17;99307.88;6051803;23;20063;-67
2021/03/17 00:29:06;;;;;;;9.32;7.47;;;;;;;3.35;94.25;99299.53;6026263;23;20006;-67
2021/03/17 00:31:32;;;;;;;8.40;7.45;;;;;;;3.67;91.39;99301.81;6098129;23;20026;-66
2021/03/17 00:33:57;;;;;;;8.75;6.68;;;;;;;3.57;91.76;99300.78;6100589;23;20002;-66
2021/03/17 00:36:22;;;;;;;7.90;7.15;;;;;;;3.56;92.26;99301.63;6103975;23;20012;-66
2021/03/17 00:38:48;;;;;;;10.50;7.70;;;;;;;3.51;91.69;99292.13;6122797;23;20075;-66
2021/03/17 00:41:13;;;;;;;7.13;6.43;;;;;;;3.56;91.76;99290.50;6120566;23;20014;-66
2021/03/17 00:43:39;;;;;;;10.13;8.00;;;;;;;3.36;91.36;99285.03;6120263;23;20085;-66
2021/03/17 00:46:05;;;;;;;8.57;7.35;;;;;;;3.39;91.86;99286.78;6120225;23;20013;-66
2021/03/17 00:48:31;;;;;;;9.07;7.63;;;;;;;3.35;92.55;99288.41;6120594;23;20492;-66
2021/03/17 00:50:56;;;;;;;9.25;7.53;;;;;;;3.27;94.50;99280.56;6081093;23;20001;-66
2021/03/17 00:53:22;;;;;;;10.68;7.57;;;;;;;3.48;93.85;99281.81;6079392;23;20006;-66
2021/03/17 00:55:47;;;;;;;11.32;7.97;;;;;;;3.38;92.95;99285.91;6076664;23;20427;-69
2021/03/17 00:58:12;;;;;;;10.00;7.68;;;;;;;3.57;94.04;99292.22;6081721;23;20002;-69
2021/03/17 05:16:26;;;;;;;14.82;11.38;;;;;;;3.07;92.18;99292.13;6117893;23;20047;-70
2021/03/17 05:18:52;;;;;;;17.48;13.02;;;;;;;2.99;92.51;99285.97;6155684;23;20045;-70
2021/03/17 05:21:18;;;;;;;18.27;13.25;;;;;;;3.01;92.80;99284.34;6155623;23;20032;-72
2021/03/17 05:23:44;;;;;;;17.55;12.73;;;;;;;2.97;92.49;99285.97;6155777;23;20052;-70
2021/03/17 05:26:10;;;;;;;18.45;13.13;;;;;;;3.27;92.74;99278.03;6142953;23;20029;-70
2021/03/17 05:28:39;;;;;;;21.02;15.25;;;;;;;3.00;92.72;99274.94;6126254;23;20082;-70
2021/03/17 05:31:07;;;;;;;22.77;13.27;;;;;;;3.03;93.10;99282.66;6047010;23;20097;-67
2021/03/17 05:33:33;;;;;;;15.60;12.23;;;;;;;3.27;92.83;99285.69;6126062;23;20076;-67
2021/03/17 05:35:59;;;;;;;13.70;11.13;;;;;;;3.33;92.30;99288.38;6125997;23;20081;-67
2021/03/17 05:38:24;;;;;;;16.55;12.60;;;;;;;3.20;93.05;99293.25;6126215;23;20040;-67
2021/03/17 05:40:50;;;;;;;17.33;12.57;;;;;;;3.13;92.60;99299.06;6126226;23;20413;-67
2021/03/17 05:43:16;;;;;;;18.75;13.60;;;;;;;3.37;91.56;99293.56;6126408;23;19997;-67
2021/03/17 05:45:42;;;;;;;18.55;13.48;;;;;;;3.14;92.83;99293.97;6125382;23;20009;-67
2021/03/17 05:48:08;;;;;;;18.77;13.70;;;;;;;3.14;91.75;99299.09;6126008;23;20005;-67
2021/03/17 05:50:34;;;;;;;22.90;16.85;;;;;;;3.26;91.44;99299.34;6126209;23;20005;-67
2021/03/17 05:53:00;;;;;;;23.63;17.15;;;;;;;3.19;90.04;99297.50;6125828;23;19998;-67
2021/03/17 05:55:25;;;;;;;27.23;17.83;;;;;;;2.83;91.92;99306.16;6125835;23;20006;-67
2021/03/17 05:57:50;;;;;;;23.08;16.67;;;;;;;3.09;91.06;99301.59;6126139;23;20005;-67
2021/03/17 06:00:19;;;;;;;24.45;17.80;;;;;;;2.99;91.72;99309.03;6125824;23;20024;-67
2021/03/17 06:02:44;;;;;;;23.55;18.02;;;;;;;3.05;92.26;99309.16;6126017;23;20006;-67
2021/03/17 06:05:11;;;;;;;26.50;18.83;;;;;;;2.86;93.76;99313.03;6092090;23;20028;-67
2021/03/17 06:07:56;;;;;;;27.42;18.08;;;;;;;2.97;92.18;99319.22;6125878;23;20006;-67
2021/03/17 06:10:22;;;;;;;21.65;16.58;;;;;;;2.66;92.96;99325.41;6125851;23;20084;-69
2021/03/17 06:12:57;;;;;;;23.30;17.55;;;;;;;2.80;93.83;99324.00;6126082;23;20025;-68
2021/03/17 06:15:23;;;;;;;24.08;16.45;;;;;;;2.93;93.06;99324.25;6125359;23;20013;-69
2021/03/17 06:18:01;;;;;;;21.63;14.93;;;;;;;2.98;92.25;99332.91;6125809;23;20012;-69
2021/03/17 06:20:26;;;;;;;20.70;12.95;;;;;;;3.03;91.89;99337.28;6125823;23;20012;-71
2021/03/17 06:22:52;;;;;;;18.42;13.05;;;;;;;3.03;92.00;99336.41;6125648;23;20005;-71
2021/03/17 06:25:19;;;;;;;14.82;12.10;;;;;;;3.12;92.02;99340.88;6125357;23;20002;-71
2021/03/17 06:27:45;;;;;;;15.80;11.90;;;;;;;2.93;91.37;99343.03;6125606;23;20002;-71
2021/03/17 06:30:12;;;;;;;16.25;12.18;;;;;;;3.01;91.03;99350.88;6125430;23;20056;-69
2021/03/17 06:32:38;;;;;;;17.40;13.13;;;;;;;2.98;90.76;99344.00;6125738;23;20068;-69
2021/03/17 06:35:18;;;;;;;15.50;12.65;;;;;;;2.96;92.07;99352.47;6125433;23;20425;-69
2021/03/17 06:37:43;;;;;;;;;;;;;;;3.05;91.44;99340.75;6126156;23;20049;-69
2021/03/17 06:40:41;;;;;;;19.05;13.60;;;;;;;3.13;89.98;99340.88;6125484;23;19904;-69
2021/03/17 06:43:09;;;;;;;19.88;14.35;;;;;;;3.21;91.32;99351.31;6061160;23;20017;-69
2021/03/17 06:45:39;;;;;;;20.05;14.65;;;;;;;3.08;92.35;99360.41;6099160;23;20085;-69
2021/03/17 06:48:32;;;;;;;19.17;14.85;;;;;;;3.27;91.03;99351.41;6099442;23;20345;-69
2021/03/17 06:51:15;;;;;;;23.10;16.35;;;;;;;3.18;91.19;99352.09;6120042;23;20029;-69
2021/03/17 06:53:48;;;;;;;25.70;17.85;;;;;;;2.97;92.16;99356.75;6125386;23;19998;-69
2021/03/17 06:56:13;;;;;;;25.83;18.20;;;;;;;3.08;92.28;99360.41;6125225;23;20430;-69
2021/03/17 06:58:41;;;;;;;26.50;16.90;;;;;;;3.32;91.05;99348.13;6125288;23;20030;-69
2021/03/17 07:01:25;;;;;;;23.25;17.33;;;;;;;3.46;90.93;99357.78;6125330;23;20329;-69
2021/03/17 07:03:59;;;;;;;28.45;19.52;;;;;;;3.58;90.93;99363.16;6122613;23;20009;-69
2021/03/17 07:06:25;;;;;;;26.92;18.73;;;;;;;3.67;91.13;99358.19;6119000;23;20053;-69
2021/03/17 07:08:51;;;;;;;26.10;18.02;;;;;;;3.77;90.02;99360.09;6124825;23;20002;-69
2021/03/17 07:11:27;;;;;;;26.58;18.88;;;;;;;3.73;89.29;99363.44;6124415;23;20052;-69
2021/03/17 07:14:02;;;;;;;28.73;19.73;;;;;;;3.78;89.38;99369.50;6124938;23;20006;-69
2021/03/17 07:16:33;;;;;;;28.02;19.20;;;;;;;3.91;89.11;99374.84;6123783;23;20009;-69
2021/03/17 07:18:59;;;;;;;32.60;19.40;;;;;;;4.00;88.84;99369.88;6125079;23;20421;-69
2021/03/17 07:21:33;;;;;;;28.75;19.92;;;;;;;4.09;88.55;99364.91;6124751;23;20080;-69
2021/03/17 07:23:59;;;;;;;30.95;19.80;;;;;;;3.97;87.98;99357.03;6099239;23;20056;-69
2021/03/17 07:26:27;;;;;;;32.13;19.35;;;;;;;4.14;87.69;99363.31;6124095;23;20077;-69
2021/03/17 07:28:57;;;;;;;28.95;18.98;;;;;;;4.49;87.14;99365.56;6124827;23;20001;-69
2021/03/17 07:31:36;;;;;;;28.20;18.67;;;;;;;4.76;85.63;99368.56;6124726;23;20038;-69
2021/03/17 07:34:10;;;;;;;26.23;17.83;;;;;;;4.72;86.18;99373.63;6124232;23;20052;-69
2021/03/17 07:36:38;;;;;;;29.10;18.17;;;;;;;4.44;86.64;99374.91;6120101;23;20006;-69
2021/03/17 07:39:09;;;;;;;28.35;19.02;;;;;;;4.26;88.09;99371.22;6112385;23;20005;-69
2021/03/17 07:41:35;;;;;;;29.55;19.17;;;;;;;4.24;87.31;99367.75;6124109;23;20033;-69
2021/03/17 07:44:04;;;;;;;28.42;19.65;;;;;;;4.36;87.69;99373.09;6092783;23;19998;-69
2021/03/17 07:46:31;;;;;;;26.52;18.33;;;;;;;4.42;86.86;99374.88;6122088;23;20005;-69
2021/03/17 07:48:57;;;;;;;28.17;19.15;;;;;;;4.57;87.85;99381.97;6124618;23;20429;-70
2021/03/17 07:51:22;;;;;;;28.50;18.67;;;;;;;4.92;86.12;99379.06;6120968;23;20076;-70
2021/03/17 07:53:52;;;;;;;24.25;18.08;;;;;;;5.15;85.88;99375.97;6124444;23;20002;-70
2021/03/17 07:56:23;;;;;;;26.33;20.08;;;;;;;5.27;84.68;99380.41;6098340;23;20012;-70
2021/03/17 07:58:51;;;;;;;24.50;16.35;;;;;;;5.36;82.76;99380.50;6124777;23;20478;-69
2021/03/17 08:01:17;;;;;;;26.00;16.42;;;;;;;5.33;83.36;99377.91;6123687;23;20005;-69
2021/03/17 08:03:46;;;;;;;26.80;16.10;;;;;;;5.30;81.68;99388.16;6073792;23;20018;-70
2021/03/17 08:06:13;;;;;;;21.65;14.93;;;;;;;5.28;81.39;99389.00;6123687;23;20001;-69
2021/03/17 08:08:41;;;;;;;23.65;15.27;;;;;;;5.25;83.30;99388.94;6123653;23;20030;-69
2021/03/17 08:11:08;;;;;;;25.17;17.52;;;;;;;5.90;82.83;99378.59;6123453;23;20005;-69
2021/03/17 08:13:34;;;;;;;23.08;16.00;;;;;;;6.91;77.43;99377.75;6123151;23;20350;-70
2021/03/17 08:16:00;;;;;;;23.60;13.80;;;;;;;7.85;71.76;99373.84;6124275;23;20037;-70
2021/03/17 08:18:34;;;;;;;19.40;13.45;;;;;;;7.67;74.13;99377.22;6124479;23;20009;-70
2021/03/17 08:21:00;;;;;;;17.15;11.27;;;;;;;7.98;68.56;99375.63;6124488;23;20006;-70
2021/03/17 08:23:39;;;;;;;13.52;10.75;;;;;;;11.04;60.13;99358.84;6124433;23;20434;-70
2021/03/17 08:26:05;;;;;;;14.98;10.15;;;;;;;13.83;50.80;99346.59;6123477;23;20005;-70
2021/03/17 08:28:31;;;;;;;15.07;9.40;;;;;;;14.23;49.20;99362.19;6124467;23;20009;-70
2021/03/17 08:30:58;;;;;;;13.32;8.75;;;;;;;13.20;49.05;99365.19;6124155;23;20005;-70
2021/03/17 08:33:37;;;;;;;13.70;9.93;;;;;;;9.60;59.81;99377.16;6098310;23;20433;-70
2021/03/17 08:36:06;;;;;;;15.13;10.20;;;;;;;8.01;65.15;99381.63;6123887;23;20014;-70
2021/03/17 08:38:45;;;;;;;16.17;11.88;;;;;;;7.65;68.03;99393.56;6117962;23;20005;-70
2021/03/17 08:41:10;;;;;;;17.20;10.40;;;;;;;7.70;67.01;99384.13;6123095;23;20530;-69
2021/03/17 08:43:36;;;;;;;18.30;10.63;;;;;;;7.41;64.96;99384.88;6123982;23;20013;-69
2021/03/17 08:46:19;;;;;;;15.93;11.63;;;;;;;6.90;67.69;99381.16;6124019;23;20002;-70
2021/03/17 08:48:59;;;;;;;12.48;8.90;;;;;;;6.86;68.24;99383.69;6123268;23;20005;-70
2021/03/17 08:51:46;;;;;;;13.68;8.40;;;;;;;6.91;67.89;99385.47;6124121;23;20073;-70
2021/03/17 08:54:47;;;;;;;14.05;8.68;;;;;;;7.29;64.95;99381.38;6124437;23;20060;-69
2021/03/17 08:57:14;;;;;;;14.35;8.50;;;;;;;7.22;66.99;99373.63;6098355;23;20010;-69
2021/03/17 08:59:44;;;;;;;11.20;7.65;;;;;;;8.89;62.50;99366.16;6123504;23;20005;-69
2021/03/17 09:02:19;;;;;;;;;;;;;;;11.77;51.94;99348.47;6124471;23;20002;-69
2021/03/17 09:04:49;;;;;;;10.65;7.22;;;;;;;12.84;49.96;99346.78;6098615;23;19905;-69
2021/03/17 09:07:16;;;;;;;12.05;7.20;;;;;;;15.25;42.30;99329.16;6124090;23;20441;-70
2021/03/17 09:09:53;;;;;;;9.18;6.82;;;;;;;15.04;43.97;99331.47;6124546;23;20076;-69
2021/03/17 09:12:39;;;;;;;8.68;6.20;;;;;;;13.77;44.49;99341.50;6122853;23;20015;-69
2021/03/17 09:15:13;;;;;;;10.68;7.00;;;;;;;11.11;51.34;99351.00;6124009;23;20002;-69
2021/03/17 09:17:48;;;;;;;8.88;6.32;;;;;;;12.53;47.08;99347.34;6124686;23;20022;-69
2021/03/17 09:20:34;;;;;;;6.70;5.47;;;;;;;15.01;41.35;99331.53;6124906;23;20333;-69
2021/03/17 09:23:14;;;;;;;7.43;5.70;;;;;;;12.09;43.08;99346.31;6125003;23;20014;-69
2021/03/17 09:25:42;;;;;;;8.38;5.78;;;;;;;11.74;45.57;99349.34;6125838;23;20052;-69
2021/03/17 09:28:19;;;;;;;8.98;6.10;;;;;;;9.65;54.60;99354.72;6126168;23;20009;-69
2021/03/17 09:30:49;;;;;;;8.98;6.13;;;;;;;8.99;52.83;99362.72;6126026;23;20002;-69
2021/03/17 09:33:21;;;;;;;7.72;5.45;;;;;;;8.12;57.38;99364.44;6126477;23;20029;-69
2021/03/17 09:36:10;;;;;;;8.07;5.18;;;;;;;7.69;58.26;99364.38;6123939;23;20010;-69
2021/03/17 09:38:42;;;;;;;10.82;6.35;;;;;;;6.95;62.11;99371.75;6122353;23;20006;-69
2021/03/17 09:41:22;;;;;;;7.25;6.00;;;;;;;7.16;63.05;99371.03;6125276;23;20002;-69
2021/03/17 09:43:50;;;;;;;9.27;6.25;;;;;;;7.04;62.43;99368.34;6125644;23;20012;-68
2021/03/17 09:46:34;;;;;;;9.85;5.95;;;;;;;6.66;62.87;99375.84;6124588;23;20006;-68
2021/03/17 09:49:04;;;;;;;10.95;5.65;;;;;;;6.27;64.88;99377.22;6126065;23;20006;-69
2021/03/17 09:51:33;;;;;;;7.97;5.25;;;;;;;6.61;63.90;99359.50;6125468;23;20013;-69
2021/03/17 09:54:02;;;;;;;7.10;5.13;;;;;;;6.94;60.58;99367.44;6125833;23;20012;-71
2021/03/17 09:56:39;;;;;;;6.10;4.43;;;;;;;7.02;62.56;99361.50;6126104;23;20006;-71
2021/03/17 09:59:42;;;;;;;10.85;4.68;;;;;;;9.92;55.74;99348.53;6124567;23;20037;-71
2021/03/17 10:02:09;;;;;;;6.38;4.40;;;;;;;13.20;45.56;99333.97;6125693;23;20006;-71
2021/03/17 10:04:44;;;;;;;6.25;4.82;;;;;;;13.61;38.22;99334.03;6125004;23;20369;-69
2021/03/17 10:07:30;;;;;;;7.03;4.93;;;;;;;11.34;44.56;99338.63;6125024;23;20012;-68
2021/03/17 10:09:57;;;;;;;4.97;4.47;;;;;;;10.45;48.01;99344.72;6123697;23;20453;-69
2021/03/17 10:12:25;;;;;;;10.38;4.60;;;;;;;9.66;50.62;99353.84;6125324;23;20005;-69
2021/03/17 10:14:59;;;;;;;6.63;4.28;;;;;;;8.42;55.70;99354.19;6125094;23;20006;-69
2021/03/17 10:17:28;;;;;;;9.18;5.13;;;;;;;7.75;55.50;99358.34;6125443;23;20089;-68
2021/03/17 10:20:05;;;;;;;12.32;7.63;;;;;;;6.23;61.39;99370.34;6125588;23;20006;-68
2021/03/17 10:22:30;;;;;;;6.72;3.17;;;;;;;5.87;57.36;99366.53;6124413;23;20002;-68
2021/03/17 10:24:58;;;;;;;4.97;3.42;;;;;;;5.16;61.82;99376.81;6125433;23;20035;-68
2021/03/17 10:27:36;;;;;;;4.82;3.58;;;;;;;4.86;67.80;99380.69;6125173;23;20006;-69
2021/03/17 10:30:09;;;;;;;5.25;3.40;;;;;;;4.77;65.31;99383.13;6120080;23;20001;-68
2021/03/17 10:32:36;;;;;;;5.70;3.45;;;;;;;4.70;67.87;99378.75;6124112;23;20010;-68
2021/03/17 10:35:11;;;;;;;4.38;3.33;;;;;;;4.59;71.04;99368.34;6125324;23;20006;-68
2021/03/17 10:37:37;;;;;;;10.48;4.38;;;;;;;4.82;68.11;99350.69;6122096;23;20093;-68
2021/03/17 10:40:24;;;;;;;6.90;3.75;;;;;;;5.35;67.64;99340.25;6121443;23;20009;-68
2021/03/17 10:42:55;;;;;;;8.93;3.88;;;;;;;5.17;69.27;99355.44;6124705;23;20152;-68
2021/03/17 10:45:30;;;;;;;8.73;3.97;;;;;;;5.60;68.20;99367.09;6123555;23;20132;-69
2021/03/17 10:47:56;;;;;;;7.63;3.90;;;;;;;5.99;67.66;99364.97;6125135;23;20397;-68
2021/03/17 10:50:29;;;;;;;11.80;4.07;;;;;;;9.39;59.40;99347.09;6125311;23;20342;-68
2021/03/17 10:52:54;;;;;;;9.23;4.38;;;;;;;10.00;51.46;99344.16;6124983;23;20009;-68
2021/03/17 10:55:27;;;;;;;8.75;3.72;;;;;;;6.88;60.59;99367.41;6124807;23;20006;-68
2021/03/17 10:58:07;;;;;;;4.88;2.45;;;;;;;7.56;56.62;99352.28;6121739;23;20092;-68
2021/03/17 11:00:32;;;;;;;8.05;3.88;;;;;;;8.57;56.01;99342.13;6125198;23;20006;-68
2021/03/17 11:02:58;;;;;;;5.57;2.83;;;;;;;9.20;54.65;99340.25;6122097;23;20006;-68
2021/03/17 11:05:26;;;;;;;6.65;3.30;;;;;;;9.05;54.88;99340.31;6124134;23;20033;-69
2021/03/17 11:08:00;;;;;;;6.72;3.58;;;;;;;8.69;56.79;99342.94;6120849;23;20432;-68
2021/03/17 11:10:33;;;;;;;9.43;4.97;;;;;;;8.31;59.82;99339.50;6124950;23;20081;-68
2021/03/17 11:13:00;;;;;;;5.40;3.63;;;;;;;8.12;61.01;99344.66;6124356;23;20076;-68
2021/03/17 11:15:31;;;;;;;7.20;4.55;;;;;;;7.83;60.33;99344.63;6124499;23;20393;-68
2021/03/17 11:17:58;;;;;;;6.35;5.05;;;;;;;7.66;62.04;99348.88;6121491;23;20006;-69
2021/03/17 11:20:25;;;;;;;8.93;5.18;;;;;;;7.20;61.96;99346.09;6118616;23;20037;-69
2021/03/17 11:22:51;;;;;;;20.25;6.57;;;;;;;6.86;62.29;99347.63;6117226;23;20006;-69
2021/03/17 11:25:23;;;;;;;10.90;4.60;;;;;;;6.86;62.63;99342.50;6124856;23;20434;-69
2021/03/17 11:27:48;;;;;;;10.18;4.40;;;;;;;6.92;63.36;99338.25;6124885;23;20029;-69
2021/03/17 11:30:14;;;;;;;14.57;4.35;;;;;;;6.02;63.81;99347.84;6136060;23;20009;-75
2021/03/17 11:32:39;;;;;;;6.03;4.65;;;;;;;6.51;64.04;99340.53;6151551;23;20009;-75
2021/03/17 11:35:06;;;;;;;6.70;4.53;;;;;;;6.27;65.17;99330.06;6150152;23;20024;-75
2021/03/17 11:37:31;;;;;;;5.78;4.20;;;;;;;5.95;64.49;99337.47;6146706;23;20549;-75
2021/03/17 11:39:56;;;;;;;6.10;4.20;;;;;;;5.96;63.98;99336.66;6140040;23;20006;-75
2021/03/17 11:42:22;;;;;;;7.32;3.40;;;;;;;5.98;64.61;99334.94;6119383;23;20009;-74
2021/03/17 11:44:47;;;;;;;14.02;3.88;;;;;;;5.91;63.84;99337.47;6119246;23;20314;-75
2021/03/17 11:47:13;;;;;;;7.65;3.20;;;;;;;6.05;65.09;99340.19;6120286;23;20089;-75
2021/03/17 11:49:39;;;;;;;9.88;4.45;;;;;;;5.99;66.55;99334.09;6119901;23;20010;-75
2021/03/17 11:52:05;;;;;;;8.13;4.68;;;;;;;5.72;67.78;99340.66;6120171;23;20042;-74
2021/03/17 11:54:31;;;;;;;8.52;4.88;;;;;;;5.74;69.48;99333.81;6119465;23;20600;-75
2021/03/17 11:56:57;;;;;;;7.63;4.10;;;;;;;5.43;67.51;99334.34;6120354;23;20092;-75
2021/03/17 11:59:23;;;;;;;8.88;4.40;;;;;;;5.34;67.46;99333.38;6120560;23;20063;-74
2021/03/17 12:01:48;;;;;;;7.15;3.88;;;;;;;5.37;70.22;99340.28;6120141;23;20010;-75
2021/03/17 12:04:14;;;;;;;12.52;4.97;;;;;;;5.05;70.27;99339.88;6120585;23;20645;-75
2021/03/17 12:06:39;;;;;;;13.00;4.63;;;;;;;5.28;67.74;99327.31;6119593;23;20013;-75
2021/03/17 12:09:05;;;;;;;12.27;4.78;;;;;;;5.46;69.27;99329.22;6119485;23;20002;-75
2021/03/17 12:11:30;;;;;;;41.08;12.43;;;;;;;5.12;71.38;99334.81;6094316;23;20310;-75
2021/03/17 12:13:56;;;;;;;9.40;4.68;;;;;;;5.40;70.59;99338.59;6120785;23;20010;-75
2021/03/17 12:16:21;;;;;;;16.45;7.30;;;;;;;5.46;69.14;99331.81;6120750;23;20060;-75
2021/03/17 12:18:48;;;;;;;11.50;5.47;;;;;;;5.44;69.18;99333.50;6120411;23;20045;-75
2021/03/17 12:21:14;;;;;;;6.82;3.83;;;;;;;5.40;69.75;99328.31;6120388;23;20017;-74
2021/03/17 12:23:39;;;;;;;9.57;5.05;;;;;;;5.52;71.04;99334.47;6120296;23;20005;-76
2021/03/17 12:26:05;;;;;;;11.77;4.43;;;;;;;5.34;74.03;99333.38;6120511;23;20005;-76
2021/03/17 12:28:31;;;;;;;13.18;5.63;;;;;;;4.98;74.91;99343.19;6120483;23;20646;-75
2021/03/17 12:30:56;;;;;;;25.00;7.72;;;;;;;4.95;75.76;99338.03;6120182;23;20010;-75
2021/03/17 12:33:21;;;;;;;5.80;3.90;;;;;;;4.60;74.01;99348.66;6101645;23;20437;-75
2021/03/17 12:35:47;;;;;;;7.18;4.45;;;;;;;4.49;77.74;99338.22;6120245;23;20010;-75
2021/03/17 12:38:12;;;;;;;8.80;4.57;;;;;;;5.05;76.80;99339.88;6104792;23;20108;-75
2021/03/17 12:40:38;;;;;;;23.63;12.40;;;;;;;5.04;76.73;99338.16;6119705;23;20382;-75
2021/03/17 12:43:03;;;;;;;7.75;5.90;;;;;;;4.99;76.54;99337.22;6119501;23;20009;-76
2021/03/17 12:45:30;;;;;;;6.45;4.70;;;;;;;5.10;78.32;99338.22;6117989;23;20009;-75
2021/03/17 12:47:56;;;;;;;9.85;5.40;;;;;;;4.84;78.17;99340.47;6119788;23;20013;-76
2021/03/17 12:50:24;;;;;;;10.15;5.30;;;;;;;4.75;79.40;99336.06;6119733;23;20009;-76
2021/03/17 12:52:49;;;;;;;7.85;4.85;;;;;;;4.56;78.79;99339.19;6120186;23;20009;-76
2021/03/17 12:55:15;;;;;;;6.38;5.10;;;;;;;4.58;80.88;99337.50;6119403;23;20006;-76
2021/03/17 12:57:42;;;;;;;9.00;5.45;;;;;;;4.63;81.11;99336.72;6121628;23;20005;-76
2021/03/17 13:00:16;;;;;;;12.85;6.43;;;;;;;4.55;82.65;99332.34;6120868;23;20005;-76
2021/03/17 13:02:43;;;;;;;9.30;6.05;;;;;;;4.60;81.29;99330.69;6121226;23;20076;-75
2021/03/17 13:05:09;;;;;;;10.07;5.65;;;;;;;4.86;81.22;99326.78;6121508;23;20026;-76
2021/03/17 13:07:35;;;;;;;11.68;6.05;;;;;;;5.09;80.07;99323.66;6120096;23;20006;-75
2021/03/17 13:10:01;;;;;;;9.68;6.13;;;;;;;5.23;79.17;99319.56;6121931;23;20017;-75
2021/03/17 13:12:27;;;;;;;15.38;7.20;;;;;;;5.29;79.37;99321.34;6120889;23;20073;-75
2021/03/17 13:14:52;;;;;;;13.73;7.28;;;;;;;5.11;78.47;99314.25;6121941;23;20006;-76
2021/03/17 13:17:19;;;;;;;12.20;6.20;;;;;;;5.26;78.46;99309.31;6122146;23;20077;-75
2021/03/17 13:19:45;;;;;;;12.95;7.75;;;;;;;5.27;79.07;99318.75;6120784;23;20042;-76
2021/03/17 13:22:10;;;;;;;10.40;6.20;;;;;;;5.22;77.62;99306.69;6121665;23;20010;-76
2021/03/17 13:24:36;;;;;;;14.70;8.15;;;;;;;5.10;78.20;99307.41;6121871;23;20009;-76
2021/03/17 13:27:01;;;;;;;13.75;6.65;;;;;;;5.24;77.84;99300.72;6121992;23;20017;-74
2021/03/17 13:29:26;;;;;;;9.20;6.30;;;;;;;5.37;79.34;99297.47;6121511;23;20404;-72
2021/03/17 13:31:52;;;;;;;12.93;7.22;;;;;;;5.40;78.21;99297.47;6120732;23;20096;-72
2021/03/17 13:34:17;;;;;;;9.23;5.70;;;;;;;5.64;77.03;99306.31;6117372;23;20033;-72
2021/03/17 13:36:42;;;;;;;9.43;6.28;;;;;;;5.58;77.25;99301.09;6118472;23;20006;-72
2021/03/17 13:39:08;;;;;;;24.88;12.43;;;;;;;5.59;76.13;99298.53;6110118;23;20401;-72
2021/03/17 13:41:34;;;;;;;15.73;9.80;;;;;;;5.25;77.91;99297.31;6110643;23;20012;-72
2021/03/17 13:44:00;;;;;;;8.20;5.88;;;;;;;5.57;78.29;99291.69;6116174;23;20711;-72
2021/03/17 13:46:26;;;;;;;11.00;5.95;;;;;;;5.37;76.41;99282.06;6115739;23;20013;-72
2021/03/17 13:48:52;;;;;;;8.25;6.25;;;;;;;5.21;77.61;99285.28;6117060;23;20006;-72
2021/03/17 13:51:18;;;;;;;7.43;5.60;;;;;;;5.37;77.05;99282.06;6120569;23;20158;-72
2021/03/17 13:53:43;;;;;;;11.50;7.25;;;;;;;5.99;77.88;99282.66;6115084;23;20006;-72
2021/03/17 13:56:09;;;;;;;9.50;5.65;;;;;;;6.35;73.43;99276.94;6118389;23;20013;-72
2021/03/17 13:58:34;;;;;;;24.45;11.73;;;;;;;6.60;71.16;99272.81;6121164;23;20016;-72
2021/03/17 14:00:59;;;;;;;15.80;6.32;;;;;;;7.05;72.26;99271.31;6118080;23;20013;-72
2021/03/17 14:03:25;;;;;;;18.10;9.18;;;;;;;7.09;70.25;99266.19;6121390;23;20012;-72
2021/03/17 14:05:50;;;;;;;9.00;5.43;;;;;;;7.77;67.61;99269.78;6119088;23;20006;-72
2021/03/17 14:08:16;;;;;;;6.30;5.05;;;;;;;7.43;67.96;99264.56;6120019;23;20033;-72
2021/03/17 14:10:42;;;;;;;10.25;5.80;;;;;;;7.12;68.38;99267.91;6121497;23;20725;-72
2021/03/17 14:13:08;;;;;;;47.20;21.55;;;;;;;6.63;69.02;99263.41;6121520;23;20012;-72
2021/03/17 14:15:34;;;;;;;34.25;18.17;;;;;;;6.27;70.54;99269.16;6121478;23;20081;-72
2021/03/17 14:18:00;;;;;;;14.32;7.82;;;;;;;6.18;71.53;99263.94;6120288;23;20012;-72
2021/03/17 14:20:28;;;;;;;9.88;8.88;;;;;;;6.23;70.75;99266.56;6121404;23;20088;-72
2021/03/17 14:22:55;;;;;;;21.70;15.75;;;;;;;5.95;71.69;99273.19;6120475;23;20061;-72
2021/03/17 14:25:21;;;;;;;8.65;6.30;;;;;;;5.75;75.28;99268.69;6121624;23;20029;-72
2021/03/17 14:27:46;;;;;;;8.52;6.13;;;;;;;6.04;72.94;99261.25;6121081;23;20013;-72
2021/03/17 14:30:13;;;;;;;17.75;9.93;;;;;;;6.08;72.92;99257.00;6120178;23;20073;-72
2021/03/17 14:32:38;;;;;;;7.20;6.20;;;;;;;6.67;71.96;99253.97;6121017;23;20025;-72
2021/03/17 14:35:06;;;;;;;18.30;11.65;;;;;;;7.17;68.45;99243.03;6118920;23;20093;-72
2021/03/17 14:37:32;;;;;;;24.20;13.85;;;;;;;6.90;69.44;99243.78;6121462;23;20032;-72
2021/03/17 14:39:57;;;;;;;15.73;8.90;;;;;;;7.44;66.96;99232.78;6120429;23;20417;-72
2021/03/17 14:42:22;;;;;;;26.10;12.18;;;;;;;7.94;66.72;99237.13;6120479;23;20481;-72
2021/03/17 14:44:48;;;;;;;15.75;10.00;;;;;;;8.03;67.81;99235.41;6120938;23;20008;-76
2021/03/17 14:47:13;;;;;;;47.65;24.55;;;;;;;7.70;68.03;99237.13;6121150;23;20084;-75
2021/03/17 14:49:39;;;;;;;13.98;10.35;;;;;;;7.09;67.79;99236.97;6121206;23;20012;-75
2021/03/17 14:52:04;;;;;;;11.82;6.45;;;;;;;6.54;70.52;99241.91;6120062;23;20782;-75
2021/03/17 14:54:30;;;;;;;13.23;7.50;;;;;;;6.28;71.94;99250.28;6120502;23;20457;-75
2021/03/17 14:56:55;;;;;;;8.43;6.68;;;;;;;5.61;74.36;99250.59;6120381;23;20010;-75
2021/03/17 14:59:20;;;;;;;10.38;7.40;;;;;;;5.65;75.19;99264.31;6121234;23;20012;-75
2021/03/17 15:01:46;;;;;;;9.02;5.47;;;;;;;3.65;81.36;99292.38;6118514;23;20006;-75
2021/03/17 15:04:12;;;;;;;3.28;2.95;;;;;;;2.04;86.98;99312.00;6119839;23;20010;-75
2021/03/17 15:06:38;;;;;;;2.67;2.40;;;;;;;2.06;88.06;99313.75;6120609;23;20037;-75
2021/03/17 15:09:04;;;;;;;1.50;1.40;;;;;;;1.88;89.63;99314.97;6120968;23;20017;-76
2021/03/17 15:11:29;;;;;;;2.05;1.30;;;;;;;1.53;90.63;99299.63;6120579;23;20006;-75
2021/03/17 15:13:55;;;;;;;1.38;1.27;;;;;;;1.40;90.69;99311.22;6120727;23;20024;-76
2021/03/17 15:16:20;;;;;;;1.98;1.83;;;;;;;1.32;92.44;99314.38;6120068;23;20010;-75
2021/03/17 15:18:45;;;;;;;1.55;1.45;;;;;;;1.56;91.93;99317.59;6120593;23;20020;-75
2021/03/17 15:21:11;;;;;;;4.78;1.70;;;;;;;1.81;91.77;99329.31;6120541;23;20445;-75
2021/03/17 15:23:36;;;;;;;3.25;2.45;;;;;;;1.96;90.48;99313.50;6120629;23;20060;-75
2021/03/17 15:26:02;;;;;;;3.92;3.13;;;;;;;1.91;90.71;99310.81;6120725;23;20481;-75
2021/03/17 15:28:27;;;;;;;6.43;3.78;;;;;;;1.87;90.11;99309.00;6119965;23;20068;-75
2021/03/17 15:30:52;;;;;;;3.20;2.67;;;;;;;1.91;90.85;99310.81;6120313;23;20408;-75
2021/03/17 15:33:18;;;;;;;2.20;2.00;;;;;;;2.15;91.18;99305.44;6116945;23;20006;-75
2021/03/17 15:35:43;;;;;;;2.83;2.22;;;;;;;2.20;91.47;99308.13;6120614;23;20002;-75
2021/03/17 15:38:09;;;;;;;3.20;2.58;;;;;;;2.19;90.10;99312.38;6120124;23;20029;-75
2021/03/17 15:40:35;;;;;;;4.07;3.08;;;;;;;2.22;88.37;99317.53;6119559;23;20010;-75
2021/03/17 15:43:01;;;;;;;3.95;2.60;;;;;;;2.13;88.46;99317.34;6120499;23;20726;-75
2021/03/17 15:45:27;;;;;;;3.17;2.70;;;;;;;2.43;88.92;99316.34;6120474;23;20014;-75
2021/03/17 15:47:53;;;;;;;7.32;3.00;;;;;;;2.43;87.32;99321.44;6120613;23;20081;-75
2021/03/17 15:50:25;;;;;;;4.90;2.92;;;;;;;2.47;89.42;99328.38;6119394;23;20064;-75
2021/03/17 15:52:52;;;;;;;4.63;2.60;;;;;;;2.36;86.43;99324.69;6120312;23;20038;-75
2021/03/17 15:55:18;;;;;;;2.10;1.63;;;;;;;2.31;87.48;99333.09;6120589;23;20604;-75